Time;durP1;ratioP1;P1;durP2;ratioP2;P2;SDS_P1;SDS_P2;PMS_P1;PMS_P2;Temp;Humidity;BMP_temperature;BMP_pressure;BME280_temperature;BME280_humidity;BME280_pressure;Samples;Min_cycle;Max_cycle;Signal;HPM_P1;HPM_P2
2022/09/15 03:54:38;;;;;;;;;;;23.70;99.90;;;;;;4958943;29;19926;-79
2022/09/15 03:57:05;;;;;;;;;;;23.80;99.90;;;;;;4961108;28;20433;-79
2022/09/15 03:59:32;;;;;;;;;;;23.80;99.90;;;;;;4959957;28;20021;-79
2022/09/15 04:01:58;;;;;;;;;;;23.80;99.90;;;;;;4960772;28;20013;-81
2022/09/15 04:04:25;;;;;;;;;;;23.70;99.90;;;;;;4962627;28;19933;-82
2022/09/15 04:06:52;;;;;;;;;;;23.70;99.90;;;;;;4963450;28;20021;-81
2022/09/15 04:09:20;;;;;;;;;;;23.70;99.90;;;;;;4962708;28;20358;-84
2022/09/15 04:11:48;;;;;;;;;;;23.70;99.90;;;;;;4961097;28;19973;-83
2022/09/15 04:14:15;;;;;;;;;;;23.80;99.90;;;;;;4960254;28;19933;-83
2022/09/15 04:16:41;;;;;;;;;;;23.80;99.90;;;;;;4960933;28;19977;-81
2022/09/15 04:19:08;;;;;;;;;;;23.70;99.90;;;;;;4961072;28;19933;-81
2022/09/15 04:21:35;;;;;;;;;;;23.80;99.90;;;;;;4960263;28;19926;-81
2022/09/15 04:24:03;;;;;;;;;;;23.70;99.90;;;;;;4960498;28;20300;-80
2022/09/15 04:26:31;;;;;;;;;;;23.70;99.90;;;;;;4960844;28;19927;-80
2022/09/15 04:29:00;;;;;;;;;;;23.70;99.90;;;;;;4961423;28;19933;-81
2022/09/15 04:31:26;;;;;;;;;;;23.70;99.90;;;;;;4958994;28;19970;-82
2022/09/15 04:33:54;;;;;;;;;;;23.70;99.90;;;;;;4959895;28;19926;-82
2022/09/15 04:36:22;;;;;;;;;;;23.70;99.90;;;;;;4959258;28;20002;-81
2022/09/15 04:38:49;;;;;;;;;;;23.70;99.90;;;;;;4960609;28;19976;-83
2022/09/15 04:41:16;;;;;;;;;;;23.70;99.90;;;;;;4962375;28;19926;-83
2022/09/15 04:43:43;;;;;;;;;;;23.70;99.90;;;;;;4961385;28;20457;-84
2022/09/15 04:46:11;;;;;;;;;;;23.70;99.90;;;;;;4959143;28;19933;-84
2022/09/15 04:48:38;;;;;;;;;;;23.70;99.90;;;;;;4957612;28;19927;-87
2022/09/15 04:51:06;;;;;;;;;;;23.70;99.90;;;;;;4956293;28;20126;-85
2022/09/15 04:53:32;;;;;;;;;;;23.70;99.90;;;;;;4956166;28;19926;-85
2022/09/15 04:56:03;;;;;;;;;;;23.70;99.90;;;;;;4957532;28;20017;-85
2022/09/15 04:58:30;;;;;;;;;;;23.70;99.90;;;;;;4962566;28;19926;-85
2022/09/15 05:00:56;;;;;;;;;;;23.60;99.90;;;;;;4964011;28;19933;-85
2022/09/15 05:03:24;;;;;;;;;;;23.60;99.90;;;;;;4965008;28;19931;-80
2022/09/15 05:05:51;;;;;;;;;;;23.60;99.90;;;;;;4970174;28;20025;-82
2022/09/15 05:08:18;;;;;;;;;;;23.50;99.90;;;;;;4971302;28;19950;-83
2022/09/15 05:10:45;;;;;;;;;;;23.50;99.90;;;;;;4969042;28;19927;-81
2022/09/15 05:13:11;;;;;;;;;;;23.50;99.90;;;;;;4960682;28;19931;-81
2022/09/15 05:15:38;;;;;;;;;;;23.50;99.90;;;;;;4960467;28;19949;-81
2022/09/15 05:18:05;;;;;;;;;;;23.50;99.90;;;;;;4960468;28;19926;-82
2022/09/15 05:20:33;;;;;;;;;;;23.50;99.90;;;;;;4960067;28;20021;-82
2022/09/15 10:17:02;;;;;;;;;;;23.50;99.90;;;;;;5789354;23;19932;-80
2022/09/15 10:19:30;;;;;;;;;;;23.50;99.90;;;;;;5020876;28;20271;-80
2022/09/15 10:22:01;;;;;;;;;;;23.50;99.90;;;;;;5020401;28;19933;-80
2022/09/15 10:24:34;;;;;;;;;;;23.50;99.90;;;;;;5020464;28;19925;-81
2022/09/15 10:27:07;;;;;;;;;;;23.50;99.90;;;;;;5019682;28;19925;-81
2022/09/15 10:29:37;;;;;;;;;;;23.60;99.90;;;;;;5020352;28;19933;-81
2022/09/15 10:32:16;;;;;;;;;;;23.50;99.90;;;;;;5021302;28;19933;-81
2022/09/15 10:34:43;;;;;;;;;;;23.60;99.90;;;;;;5021851;28;20332;-81
2022/09/15 10:37:15;;;;;;;;;;;23.60;99.90;;;;;;5021038;28;19932;-81
2022/09/15 10:39:48;;;;;;;;;;;23.60;99.90;;;;;;5020009;28;19925;-80
2022/09/15 10:42:18;;;;;;;;;;;23.50;99.90;;;;;;5018881;28;19932;-80
2022/09/15 10:44:49;;;;;;;;;;;23.50;99.90;;;;;;5019206;28;20020;-81
2022/09/15 10:47:22;;;;;;;;;;;23.60;99.90;;;;;;5019515;28;20014;-82
2022/09/15 10:49:56;;;;;;;;;;;23.60;99.90;;;;;;5018788;28;20016;-79
2022/09/15 10:52:28;;;;;;;;;;;23.60;99.90;;;;;;5018347;28;20025;-79
2022/09/15 10:55:06;;;;;;;;;;;23.60;99.90;;;;;;5018296;28;20001;-80
2022/09/15 10:57:45;;;;;;;;;;;23.60;99.90;;;;;;5019112;28;19932;-79
2022/09/15 11:00:13;;;;;;;;;;;23.60;99.90;;;;;;5019191;28;19972;-80
2022/09/15 11:02:58;;;;;;;;;;;23.60;99.90;;;;;;5020923;28;20024;-80
2022/09/15 11:05:29;;;;;;;;;;;23.60;99.90;;;;;;5018710;28;20412;-80
2022/09/15 11:08:15;;;;;;;;;;;23.60;99.90;;;;;;5018163;28;19972;-80
2022/09/15 11:10:45;;;;;;;;;;;23.70;99.90;;;;;;5019319;28;19932;-81
2022/09/15 11:13:15;;;;;;;;;;;23.60;99.90;;;;;;5017658;28;20344;-80
2022/09/15 11:15:48;;;;;;;;;;;23.60;99.90;;;;;;5018331;28;20288;-80
2022/09/15 11:18:33;;;;;;;;;;;23.70;99.90;;;;;;5017997;28;20288;-79
2022/09/15 11:21:07;;;;;;;;;;;23.70;99.90;;;;;;5018724;28;20025;-79
2022/09/15 11:23:37;;;;;;;;;;;23.70;99.90;;;;;;5018832;28;19932;-80
2022/09/15 11:26:07;;;;;;;;;;;23.60;99.90;;;;;;5020322;28;20012;-80
2022/09/15 11:28:37;;;;;;;;;;;23.70;99.90;;;;;;5020451;28;19981;-80
2022/09/15 11:31:07;;;;;;;;;;;23.70;99.90;;;;;;5020188;28;19932;-80
2022/09/15 11:33:39;;;;;;;;;;;23.70;99.90;;;;;;5018750;28;20359;-80
2022/09/15 11:36:08;;;;;;;;;;;23.70;99.90;;;;;;5018239;28;19951;-80
2022/09/15 11:38:39;;;;;;;;;;;23.70;99.90;;;;;;5017998;28;20025;-79
2022/09/15 11:41:15;;;;;;;;;;;23.70;99.90;;;;;;5017706;28;19935;-80
2022/09/15 11:43:45;;;;;;;;;;;23.70;99.90;;;;;;5016558;28;20340;-79
2022/09/15 11:46:14;;;;;;;;;;;23.70;99.90;;;;;;5015782;28;19926;-79
2022/09/15 11:48:44;;;;;;;;;;;23.70;99.90;;;;;;5016145;28;19925;-78
2022/09/15 11:51:13;;;;;;;;;;;23.70;99.90;;;;;;5015726;28;19925;-79
2022/09/15 11:53:42;;;;;;;;;;;23.70;99.90;;;;;;5016222;28;20385;-80
2022/09/15 11:56:13;;;;;;;;;;;23.70;99.90;;;;;;5015619;28;20428;-79
2022/09/15 11:58:45;;;;;;;;;;;23.70;99.90;;;;;;5015727;28;19976;-79
2022/09/15 12:01:14;;;;;;;;;;;23.70;99.90;;;;;;5016866;28;19977;-79
2022/09/15 12:03:47;;;;;;;;;;;23.70;99.90;;;;;;5017533;28;19931;-79
2022/09/15 12:06:15;;;;;;;;;;;23.70;99.90;;;;;;5015732;28;19929;-80
2022/09/15 12:08:42;;;;;;;;;;;23.70;99.90;;;;;;5015592;28;19932;-79
2022/09/15 12:11:12;;;;;;;;;;;23.70;99.90;;;;;;5018251;28;19996;-78
2022/09/15 12:13:40;;;;;;;;;;;23.70;99.90;;;;;;5020458;28;19925;-78
2022/09/15 12:16:08;;;;;;;;;;;23.70;99.90;;;;;;5022155;28;19926;-81
2022/09/15 12:18:36;;;;;;;;;;;23.70;99.90;;;;;;5017463;28;19929;-81
2022/09/15 12:21:08;;;;;;;;;;;23.70;99.90;;;;;;5015881;28;19925;-81
2022/09/15 12:23:37;;;;;;;;;;;23.80;99.90;;;;;;5015957;28;19925;-80
2022/09/15 12:26:09;;;;;;;;;;;23.80;99.90;;;;;;5015464;28;19926;-80
2022/09/15 12:28:38;;;;;;;;;;;23.80;99.90;;;;;;5015997;28;19948;-80
2022/09/15 12:31:12;;;;;;;;;;;23.80;99.90;;;;;;5014866;28;20403;-80
2022/09/15 12:33:45;;;;;;;;;;;23.80;99.90;;;;;;5015771;28;20349;-80
2022/09/15 12:36:30;;;;;;;;;;;23.90;99.90;;;;;;5015132;28;19926;-82
2022/09/15 12:38:59;;;;;;;;;;;23.90;99.90;;;;;;5015098;28;19933;-80
2022/09/15 12:41:26;;;;;;;;;;;23.90;99.90;;;;;;5015006;28;20299;-81
2022/09/15 12:43:54;;;;;;;;;;;23.90;99.90;;;;;;5015736;28;20407;-89
2022/09/15 12:46:20;;;;;;;;;;;23.90;99.90;;;;;;5015829;28;20012;-83
2022/09/15 12:48:48;;;;;;;;;;;23.90;99.90;;;;;;5015020;28;19929;-84
2022/09/15 12:51:22;;;;;;;;;;;23.90;99.90;;;;;;5014810;28;19980;-84
2022/09/15 12:53:50;;;;;;;;;;;23.90;99.90;;;;;;5014673;28;19925;-84
2022/09/15 12:56:24;;;;;;;;;;;23.90;99.90;;;;;;5014334;28;19930;-84
2022/09/15 12:58:51;;;;;;;;;;;23.90;99.90;;;;;;5020521;28;19929;-84
2022/09/15 13:01:33;;;;;;;;;;;23.90;99.90;;;;;;5021918;28;19992;-84
2022/09/15 13:04:25;;;;;;;;;;;23.90;99.90;;;;;;5009572;28;20274;-83
2022/09/15 13:07:07;;;;;;;;;;;23.90;99.90;;;;;;5020768;28;19925;-85
2022/09/15 13:09:43;;;;;;;;;;;23.90;99.90;;;;;;4988041;28;19948;-83
2022/09/15 13:12:13;;;;;;;;;;;23.90;99.90;;;;;;5021518;28;19925;-82
2022/09/15 13:14:41;;;;;;;;;;;23.80;99.90;;;;;;5021088;28;19961;-84
2022/09/15 13:17:13;;;;;;;;;;;23.80;99.90;;;;;;5024914;28;19989;-83
2022/09/15 13:19:42;;;;;;;;;;;23.90;99.90;;;;;;5026639;28;19926;-83
2022/09/15 13:22:17;;;;;;;;;;;23.80;99.90;;;;;;5028223;28;19979;-84
2022/09/15 13:24:47;;;;;;;;;;;23.80;99.90;;;;;;5029132;28;20012;-83
2022/09/15 13:27:21;;;;;;;;;;;23.80;99.90;;;;;;5025923;28;19989;-83
2022/09/15 13:29:49;;;;;;;;;;;23.80;99.90;;;;;;5026585;28;19926;-83
2022/09/15 13:32:23;;;;;;;;;;;23.80;99.90;;;;;;5026709;28;19993;-84
2022/09/15 13:35:10;;;;;;;;;;;23.80;99.90;;;;;;5026692;28;19932;-82
2022/09/15 13:37:48;;;;;;;;;;;23.80;99.90;;;;;;5024252;28;19929;-77
2022/09/15 13:40:33;;;;;;;;;;;23.90;99.90;;;;;;5022959;28;19933;-78
2022/09/15 13:43:09;;;;;;;;;;;23.80;99.90;;;;;;5017266;28;19968;-78
2022/09/15 13:45:44;;;;;;;;;;;23.80;99.90;;;;;;5020943;28;20301;-78
2022/09/15 13:48:29;;;;;;;;;;;23.80;99.90;;;;;;5020444;28;19926;-78
2022/09/15 13:50:58;;;;;;;;;;;23.80;99.90;;;;;;5022962;28;19925;-79
2022/09/15 13:53:36;;;;;;;;;;;23.80;99.90;;;;;;5020463;28;20292;-80
2022/09/15 13:56:05;;;;;;;;;;;23.80;99.90;;;;;;5019488;28;19957;-78
2022/09/15 13:58:33;;;;;;;;;;;23.80;99.90;;;;;;5017428;28;19926;-78
2022/09/15 14:01:02;;;;;;;;;;;23.80;99.90;;;;;;5016829;28;20376;-78
2022/09/15 14:03:35;;;;;;;;;;;23.80;99.90;;;;;;5017121;28;19972;-78
2022/09/15 14:06:03;;;;;;;;;;;23.80;99.90;;;;;;5016925;28;19929;-78
2022/09/15 14:08:31;;;;;;;;;;;23.80;99.90;;;;;;5018168;28;19926;-78
2022/09/15 14:10:59;;;;;;;;;;;23.90;99.90;;;;;;5017580;28;19932;-78
2022/09/15 14:13:27;;;;;;;;;;;23.80;99.90;;;;;;5016755;28;19929;-78
2022/09/15 14:15:59;;;;;;;;;;;23.90;99.90;;;;;;5019622;28;20000;-80
2022/09/15 14:18:26;;;;;;;;;;;23.80;99.90;;;;;;5020541;28;19969;-82
2022/09/15 14:21:00;;;;;;;;;;;23.80;99.90;;;;;;5017402;28;19925;-80
2022/09/15 14:23:28;;;;;;;;;;;23.80;99.90;;;;;;5019168;28;20028;-81
2022/09/15 14:25:55;;;;;;;;;;;23.80;99.90;;;;;;5019267;28;19975;-81
2022/09/15 14:28:24;;;;;;;;;;;23.80;99.90;;;;;;5018133;28;19996;-81
2022/09/15 14:30:51;;;;;;;;;;;23.80;99.90;;;;;;5017584;28;19969;-81
2022/09/15 14:33:19;;;;;;;;;;;23.80;99.90;;;;;;5017917;28;19929;-81
2022/09/15 14:35:46;;;;;;;;;;;23.90;99.90;;;;;;5018431;28;20016;-81
2022/09/15 14:38:20;;;;;;;;;;;23.90;99.90;;;;;;5018019;28;20016;-81
2022/09/15 14:40:53;;;;;;;;;;;23.80;99.90;;;;;;5016503;28;20399;-80
2022/09/15 14:43:27;;;;;;;;;;;23.90;99.90;;;;;;5017079;28;19932;-81
2022/09/15 14:45:54;;;;;;;;;;;23.90;99.90;;;;;;5016609;28;19931;-81
2022/09/15 14:48:25;;;;;;;;;;;23.90;99.90;;;;;;5017836;28;19969;-82
2022/09/15 14:50:56;;;;;;;;;;;23.90;99.90;;;;;;5017713;28;19925;-82
2022/09/15 14:53:24;;;;;;;;;;;23.90;99.90;;;;;;5018536;28;19948;-82
2022/09/15 14:55:53;;;;;;;;;;;23.90;99.90;;;;;;5017297;28;19926;-81
2022/09/15 14:58:21;;;;;;;;;;;23.90;99.90;;;;;;5017214;28;19926;-81
2022/09/15 15:00:53;;;;;;;;;;;23.90;99.90;;;;;;5016025;28;20423;-81
2022/09/15 15:03:26;;;;;;;;;;;23.90;99.90;;;;;;5016451;28;20024;-81
2022/09/15 15:05:56;;;;;;;;;;;23.90;99.90;;;;;;5016770;28;20011;-81
2022/09/15 15:08:28;;;;;;;;;;;23.90;99.90;;;;;;5016594;28;19925;-82
2022/09/15 15:10:55;;;;;;;;;;;23.90;99.90;;;;;;5016609;28;19926;-82
2022/09/15 15:13:22;;;;;;;;;;;23.90;99.90;;;;;;5016968;28;19926;-82
2022/09/15 15:15:48;;;;;;;;;;;23.90;99.90;;;;;;5017422;28;19929;-81
2022/09/15 15:18:31;;;;;;;;;;;23.90;99.90;;;;;;5016443;28;20004;-82
2022/09/15 15:20:57;;;;;;;;;;;23.90;99.90;;;;;;5017835;28;19933;-81
2022/09/15 15:23:25;;;;;;;;;;;23.90;99.90;;;;;;5017730;28;19926;-82
2022/09/15 15:25:52;;;;;;;;;;;23.90;99.90;;;;;;5017438;28;20337;-82
2022/09/15 15:28:31;;;;;;;;;;;23.90;99.90;;;;;;5018505;28;20008;-82
2022/09/15 15:31:06;;;;;;;;;;;23.90;99.90;;;;;;5017517;28;19929;-82
2022/09/15 15:33:34;;;;;;;;;;;23.90;99.90;;;;;;5017036;28;19977;-81
2022/09/15 15:36:02;;;;;;;;;;;23.90;99.90;;;;;;5017593;28;19925;-82
2022/09/15 15:38:32;;;;;;;;;;;24.00;99.90;;;;;;5017254;28;19976;-83
2022/09/15 15:41:00;;;;;;;;;;;23.90;99.90;;;;;;5016552;28;19953;-83
2022/09/15 15:43:27;;;;;;;;;;;23.90;99.90;;;;;;5017036;28;19932;-81
2022/09/15 15:45:57;;;;;;;;;;;23.90;99.90;;;;;;5016697;28;19925;-80
2022/09/15 15:48:24;;;;;;;;;;;23.90;99.90;;;;;;5015625;28;19976;-79
2022/09/15 15:50:52;;;;;;;;;;;23.90;99.90;;;;;;5015851;28;19925;-79
2022/09/15 15:53:19;;;;;;;;;;;23.90;99.90;;;;;;5015653;28;19932;-80
2022/09/15 15:55:46;;;;;;;;;;;23.90;99.90;;;;;;5015833;28;19926;-80
2022/09/15 15:58:13;;;;;;;;;;;23.90;99.90;;;;;;5014843;28;19925;-80
2022/09/15 16:00:42;;;;;;;;;;;23.90;99.90;;;;;;5014993;28;20398;-80
2022/09/15 16:03:09;;;;;;;;;;;24.00;99.90;;;;;;5015576;28;20304;-80
2022/09/15 16:05:37;;;;;;;;;;;23.90;99.90;;;;;;5016629;28;20004;-80
2022/09/15 16:08:06;;;;;;;;;;;24.00;99.90;;;;;;5015365;28;19925;-80
2022/09/15 16:10:41;;;;;;;;;;;23.90;99.90;;;;;;5015765;28;19925;-80
2022/09/15 16:13:09;;;;;;;;;;;23.90;99.90;;;;;;5015914;28;20008;-80
2022/09/15 16:15:35;;;;;;;;;;;23.90;99.90;;;;;;5015088;28;19934;-80
2022/09/15 16:18:03;;;;;;;;;;;23.90;99.90;;;;;;5015243;28;19932;-80
2022/09/15 16:20:29;;;;;;;;;;;23.90;99.90;;;;;;5014803;28;19926;-78
2022/09/15 16:22:56;;;;;;;;;;;23.90;99.90;;;;;;5015377;28;20348;-81
2022/09/15 16:25:28;;;;;;;;;;;23.90;99.90;;;;;;5015384;28;19926;-80
2022/09/15 16:27:55;;;;;;;;;;;23.90;99.90;;;;;;5014716;28;20019;-80
2022/09/15 16:30:21;;;;;;;;;;;23.90;99.90;;;;;;5015301;28;20004;-83
2022/09/15 16:32:48;;;;;;;;;;;23.90;99.90;;;;;;5015554;28;20020;-82
2022/09/15 16:35:24;;;;;;;;;;;23.90;99.90;;;;;;5017670;28;19926;-82
2022/09/15 16:37:51;;;;;;;;;;;23.90;99.90;;;;;;5017504;28;19926;-81
2022/09/15 16:40:17;;;;;;;;;;;23.90;99.90;;;;;;5017748;28;19932;-82
2022/09/15 16:42:46;;;;;;;;;;;23.80;99.90;;;;;;5017734;28;19925;-82
2022/09/15 16:45:17;;;;;;;;;;;23.90;99.90;;;;;;5018577;28;20456;-83
2022/09/15 16:47:44;;;;;;;;;;;23.80;99.90;;;;;;5018003;28;20012;-83
2022/09/15 16:50:12;;;;;;;;;;;23.90;99.90;;;;;;5017228;28;19931;-82
2022/09/15 16:52:39;;;;;;;;;;;23.90;99.90;;;;;;5020612;28;19929;-82
2022/09/15 16:55:14;;;;;;;;;;;23.80;99.90;;;;;;5023159;28;19929;-82
2022/09/15 16:57:41;;;;;;;;;;;23.90;99.90;;;;;;5020576;28;20312;-81
2022/09/15 17:00:10;;;;;;;;;;;23.90;99.90;;;;;;5020677;28;20381;-82
2022/09/15 17:02:37;;;;;;;;;;;23.80;99.90;;;;;;5024294;28;20351;-83
2022/09/15 17:05:12;;;;;;;;;;;23.90;99.90;;;;;;5022002;28;20320;-83
2022/09/15 17:07:39;;;;;;;;;;;23.80;99.90;;;;;;5021883;28;19929;-83
2022/09/15 17:10:06;;;;;;;;;;;23.80;99.90;;;;;;5022296;28;19972;-83
2022/09/15 17:12:33;;;;;;;;;;;23.80;99.90;;;;;;5021186;28;19968;-80
2022/09/15 17:15:00;;;;;;;;;;;23.80;99.90;;;;;;5020610;28;19929;-80
2022/09/15 17:17:28;;;;;;;;;;;23.80;99.90;;;;;;5019886;28;19925;-80
2022/09/15 17:19:54;;;;;;;;;;;23.80;99.90;;;;;;5019875;28;20004;-81
2022/09/15 17:22:21;;;;;;;;;;;23.80;99.90;;;;;;5019838;28;19996;-81
2022/09/15 17:24:47;;;;;;;;;;;23.80;99.90;;;;;;5020683;28;19965;-81
2022/09/15 17:27:14;;;;;;;;;;;23.80;99.90;;;;;;5020609;28;19969;-82
2022/09/15 17:29:41;;;;;;;;;;;23.80;99.90;;;;;;5020410;28;19968;-81
2022/09/15 17:32:08;;;;;;;;;;;23.80;99.90;;;;;;5020713;28;19932;-82
2022/09/15 17:34:36;;;;;;;;;;;23.80;99.90;;;;;;5020700;28;20028;-84
2022/09/15 17:37:03;;;;;;;;;;;23.80;99.90;;;;;;5020452;28;20016;-83
2022/09/15 17:39:30;;;;;;;;;;;23.80;99.90;;;;;;5020254;28;19929;-83
2022/09/15 17:41:56;;;;;;;;;;;23.80;99.90;;;;;;5021653;28;19926;-83
2022/09/15 17:44:23;;;;;;;;;;;23.80;99.90;;;;;;5021608;28;19989;-83
2022/09/15 17:46:50;;;;;;;;;;;23.80;99.90;;;;;;5021387;28;20009;-83
2022/09/15 17:49:16;;;;;;;;;;;23.80;99.90;;;;;;5021142;28;19926;-83
2022/09/15 17:51:45;;;;;;;;;;;23.80;99.90;;;;;;5021571;28;19926;-83
2022/09/15 17:54:12;;;;;;;;;;;23.80;99.90;;;;;;5021200;28;19975;-82
2022/09/15 17:56:38;;;;;;;;;;;23.80;99.90;;;;;;5021153;28;19961;-83
2022/09/15 17:59:05;;;;;;;;;;;23.80;99.90;;;;;;5021624;28;20020;-83
2022/09/15 18:01:32;;;;;;;;;;;23.80;99.90;;;;;;5022403;28;19960;-83
2022/09/15 18:03:59;;;;;;;;;;;23.80;99.90;;;;;;5020796;28;20020;-81
2022/09/15 18:06:26;;;;;;;;;;;23.80;99.90;;;;;;5020991;28;20440;-85
2022/09/15 18:08:54;;;;;;;;;;;23.80;99.90;;;;;;5022271;28;19925;-85
2022/09/15 18:11:20;;;;;;;;;;;23.80;99.90;;;;;;5021524;28;20024;-85
2022/09/15 18:13:47;;;;;;;;;;;23.80;99.90;;;;;;5019465;28;20377;-85
2022/09/15 18:16:14;;;;;;;;;;;23.80;99.90;;;;;;5019761;28;19929;-85
2022/09/15 18:18:41;;;;;;;;;;;23.80;99.90;;;;;;5019413;28;20084;-85
2022/09/15 18:21:10;;;;;;;;;;;23.80;99.90;;;;;;5020325;28;20377;-86
2022/09/15 18:23:37;;;;;;;;;;;23.80;99.90;;;;;;5020153;28;19947;-83
2022/09/15 18:26:06;;;;;;;;;;;23.80;99.90;;;;;;5020369;28;20351;-83
2022/09/15 18:28:33;;;;;;;;;;;23.80;99.90;;;;;;5020875;28;20419;-84
2022/09/15 18:30:59;;;;;;;;;;;23.80;99.90;;;;;;5022051;28;20424;-84
2022/09/15 18:33:26;;;;;;;;;;;23.80;99.90;;;;;;5021780;28;20393;-84
2022/09/15 18:35:54;;;;;;;;;;;23.90;99.90;;;;;;5021585;28;20020;-84
2022/09/15 18:38:21;;;;;;;;;;;23.80;99.90;;;;;;5021664;28;20030;-84
2022/09/15 18:40:49;;;;;;;;;;;23.90;99.90;;;;;;5020794;28;19934;-83
2022/09/15 18:43:17;;;;;;;;;;;23.90;99.90;;;;;;5020853;28;19925;-84
2022/09/15 18:45:44;;;;;;;;;;;23.90;99.90;;;;;;5020981;28;19998;-84
2022/09/15 18:48:11;;;;;;;;;;;23.90;99.90;;;;;;5022156;28;20008;-84
2022/09/15 18:50:38;;;;;;;;;;;23.90;99.90;;;;;;5020668;28;19933;-84
2022/09/15 18:53:05;;;;;;;;;;;23.90;99.90;;;;;;5028617;28;19960;-83
2022/09/15 18:55:32;;;;;;;;;;;23.90;99.90;;;;;;5030266;28;19969;-83
2022/09/15 18:57:58;;;;;;;;;;;23.90;99.90;;;;;;5030964;28;20301;-83
2022/09/15 19:00:27;;;;;;;;;;;23.90;99.90;;;;;;5030801;28;19926;-84
2022/09/15 19:02:57;;;;;;;;;;;23.90;99.90;;;;;;5022870;28;20357;-84
2022/09/15 19:05:24;;;;;;;;;;;23.90;99.90;;;;;;5018415;28;20417;-84
2022/09/15 19:07:50;;;;;;;;;;;23.90;99.90;;;;;;5017942;28;19947;-84
2022/09/15 19:10:19;;;;;;;;;;;23.90;99.90;;;;;;5016808;28;20170;-84
2022/09/15 19:12:46;;;;;;;;;;;23.90;99.90;;;;;;5016212;28;19968;-83
2022/09/15 19:15:13;;;;;;;;;;;23.90;99.90;;;;;;5015254;28;19968;-83
2022/09/15 19:17:41;;;;;;;;;;;23.90;99.90;;;;;;5015595;28;19925;-83
2022/09/15 19:20:09;;;;;;;;;;;23.90;99.90;;;;;;5015835;28;20006;-83
2022/09/15 19:22:36;;;;;;;;;;;23.90;99.90;;;;;;5015631;28;20381;-84
2022/09/15 19:25:03;;;;;;;;;;;23.90;99.90;;;;;;5015594;28;20428;-84
2022/09/15 19:27:30;;;;;;;;;;;23.90;99.90;;;;;;5015646;28;20345;-85
2022/09/15 19:29:56;;;;;;;;;;;23.90;99.90;;;;;;5016557;28;20320;-84
2022/09/15 19:32:23;;;;;;;;;;;23.90;99.90;;;;;;5016611;28;19926;-84
2022/09/15 19:34:51;;;;;;;;;;;23.90;99.90;;;;;;5015771;28;19980;-84
2022/09/15 19:37:19;;;;;;;;;;;23.90;99.90;;;;;;5015807;28;20008;-84
2022/09/15 19:39:46;;;;;;;;;;;23.90;99.90;;;;;;5015683;28;19925;-84
2022/09/15 19:42:13;;;;;;;;;;;23.90;99.90;;;;;;5015140;28;20355;-83
2022/09/15 19:44:41;;;;;;;;;;;23.90;99.90;;;;;;5015620;28;20020;-84
2022/09/15 19:47:07;;;;;;;;;;;23.90;99.90;;;;;;5015241;28;19932;-83
2022/09/15 19:49:34;;;;;;;;;;;23.80;99.90;;;;;;5015068;28;20023;-83
2022/09/15 19:52:02;;;;;;;;;;;23.80;99.90;;;;;;5014923;28;19933;-83
2022/09/15 19:54:29;;;;;;;;;;;23.80;99.90;;;;;;5014869;28;20487;-83
2022/09/15 19:56:56;;;;;;;;;;;23.80;99.90;;;;;;5014726;28;19951;-83
2022/09/15 19:59:23;;;;;;;;;;;23.80;99.90;;;;;;5014934;28;19964;-82
2022/09/15 20:01:50;;;;;;;;;;;23.80;99.90;;;;;;5015756;28;19931;-83
2022/09/15 20:04:17;;;;;;;;;;;23.80;99.90;;;;;;5014946;28;19926;-81
2022/09/15 20:06:43;;;;;;;;;;;23.80;99.90;;;;;;5014595;28;20324;-81
2022/09/15 20:09:11;;;;;;;;;;;23.80;99.90;;;;;;5015007;28;19932;-81
2022/09/15 20:11:38;;;;;;;;;;;23.70;99.90;;;;;;5015057;28;20340;-81
2022/09/15 20:14:05;;;;;;;;;;;23.70;99.90;;;;;;5015784;28;19939;-81
2022/09/15 20:16:32;;;;;;;;;;;23.80;99.90;;;;;;5015491;28;19925;-82
2022/09/15 20:18:59;;;;;;;;;;;23.70;99.90;;;;;;5014920;28;19926;-82
2022/09/15 20:21:27;;;;;;;;;;;23.80;99.90;;;;;;5014823;28;19981;-80
2022/09/15 20:23:54;;;;;;;;;;;23.70;99.90;;;;;;5022825;23;19932;-79
2022/09/15 20:26:22;;;;;;;;;;;23.70;99.90;;;;;;5017978;28;19929;-79
2022/09/15 20:28:49;;;;;;;;;;;23.70;99.90;;;;;;5019520;28;20372;-79
2022/09/15 20:31:18;;;;;;;;;;;23.70;99.90;;;;;;5019907;28;19952;-79
2022/09/15 20:33:45;;;;;;;;;;;23.70;99.90;;;;;;5019824;28;19930;-79
2022/09/15 20:36:13;;;;;;;;;;;23.70;99.90;;;;;;5020463;28;19926;-79
2022/09/15 20:38:40;;;;;;;;;;;23.70;99.90;;;;;;5019792;28;19972;-79
2022/09/15 20:41:07;;;;;;;;;;;23.70;99.90;;;;;;5019717;28;19929;-79
2022/09/15 20:43:36;;;;;;;;;;;23.70;99.90;;;;;;5018756;28;20000;-79
2022/09/15 20:46:04;;;;;;;;;;;23.70;99.90;;;;;;5019573;28;19933;-79
2022/09/15 20:48:32;;;;;;;;;;;23.70;99.90;;;;;;5019384;28;19932;-79
2022/09/15 20:51:02;;;;;;;;;;;23.70;99.90;;;;;;5018927;28;19932;-79
2022/09/15 20:53:28;;;;;;;;;;;23.70;99.90;;;;;;5019362;28;20019;-79
2022/09/15 20:55:55;;;;;;;;;;;23.70;99.90;;;;;;5019497;28;19925;-78
2022/09/15 20:58:22;;;;;;;;;;;23.70;99.90;;;;;;5019590;28;19926;-79
2022/09/15 21:00:51;;;;;;;;;;;23.70;99.90;;;;;;5019388;28;19925;-79
2022/09/15 21:03:18;;;;;;;;;;;23.70;99.90;;;;;;5019303;28;19925;-79
2022/09/15 21:05:45;;;;;;;;;;;23.70;99.90;;;;;;5019107;28;19926;-79
2022/09/15 21:08:12;;;;;;;;;;;23.70;99.90;;;;;;5019125;28;19932;-79
2022/09/15 21:10:38;;;;;;;;;;;23.70;99.90;;;;;;5019224;28;20289;-78
2022/09/15 21:13:05;;;;;;;;;;;23.70;99.90;;;;;;5019465;28;19969;-78
2022/09/15 21:15:32;;;;;;;;;;;23.70;99.90;;;;;;5019539;28;19926;-79
2022/09/15 21:18:00;;;;;;;;;;;23.70;99.90;;;;;;5018994;28;19948;-79
2022/09/15 21:20:27;;;;;;;;;;;23.70;99.90;;;;;;5019069;28;19951;-79
2022/09/15 21:22:54;;;;;;;;;;;23.70;99.90;;;;;;5018495;28;19948;-79
2022/09/15 21:25:21;;;;;;;;;;;23.70;99.90;;;;;;5018156;28;19926;-79
2022/09/15 21:27:47;;;;;;;;;;;23.70;99.90;;;;;;5017705;28;20418;-78
2022/09/15 21:30:14;;;;;;;;;;;23.70;99.90;;;;;;5017889;28;20019;-78
2022/09/15 21:32:41;;;;;;;;;;;23.70;99.90;;;;;;5018039;28;20399;-78
